sensor_id;sensor_type;location;lat;lon;timestamp;P1;durP1;ratioP1;P2;durP2;ratioP2
4794;SDS011;2411;47.060;15.064;2022-11-02T00:00:42;14.60;;;6.60;;
4794;SDS011;2411;47.060;15.064;2022-11-02T00:03:11;7.83;;;7.03;;
4794;SDS011;2411;47.060;15.064;2022-11-02T00:05:38;12.70;;;6.63;;
4794;SDS011;2411;47.060;15.064;2022-11-02T00:08:06;10.30;;;6.80;;
4794;SDS011;2411;47.060;15.064;2022-11-02T00:10:33;7.20;;;6.50;;
4794;SDS011;2411;47.060;15.064;2022-11-02T00:13:00;11.97;;;6.70;;
4794;SDS011;2411;47.060;15.064;2022-11-02T00:15:30;16.50;;;6.90;;
4794;SDS011;2411;47.060;15.064;2022-11-02T00:18:02;7.27;;;6.37;;
4794;SDS011;2411;47.060;15.064;2022-11-02T00:20:34;14.40;;;7.00;;
4794;SDS011;2411;47.060;15.064;2022-11-02T00:23:03;11.00;;;7.90;;
4794;SDS011;2411;47.060;15.064;2022-11-02T00:25:33;8.93;;;7.30;;
4794;SDS011;2411;47.060;15.064;2022-11-02T00:28:03;10.80;;;6.80;;
4794;SDS011;2411;47.060;15.064;2022-11-02T00:30:31;7.67;;;6.20;;
4794;SDS011;2411;47.060;15.064;2022-11-02T00:32:58;7.30;;;6.47;;
4794;SDS011;2411;47.060;15.064;2022-11-02T00:35:25;10.80;;;6.50;;
4794;SDS011;2411;47.060;15.064;2022-11-02T00:37:53;7.40;;;6.63;;
4794;SDS011;2411;47.060;15.064;2022-11-02T00:40:20;11.37;;;6.10;;
4794;SDS011;2411;47.060;15.064;2022-11-02T00:42:48;7.73;;;6.80;;
4794;SDS011;2411;47.060;15.064;2022-11-02T00:45:15;6.83;;;5.50;;
4794;SDS011;2411;47.060;15.064;2022-11-02T00:47:42;8.00;;;5.93;;
4794;SDS011;2411;47.060;15.064;2022-11-02T00:50:10;6.67;;;6.00;;
4794;SDS011;2411;47.060;15.064;2022-11-02T00:52:38;6.73;;;5.30;;
4794;SDS011;2411;47.060;15.064;2022-11-02T00:55:06;8.20;;;5.60;;
4794;SDS011;2411;47.060;15.064;2022-11-02T00:57:34;5.40;;;4.90;;
4794;SDS011;2411;47.060;15.064;2022-11-02T01:00:06;6.77;;;5.97;;
4794;SDS011;2411;47.060;15.064;2022-11-02T01:02:35;5.47;;;4.97;;
4794;SDS011;2411;47.060;15.064;2022-11-02T01:05:04;6.17;;;5.57;;
4794;SDS011;2411;47.060;15.064;2022-11-02T01:07:31;7.67;;;5.77;;
4794;SDS011;2411;47.060;15.064;2022-11-02T01:09:59;7.07;;;6.37;;
4794;SDS011;2411;47.060;15.064;2022-11-02T01:12:26;10.27;;;6.70;;
4794;SDS011;2411;47.060;15.064;2022-11-02T01:14:53;8.80;;;6.63;;
4794;SDS011;2411;47.060;15.064;2022-11-02T01:17:21;8.60;;;7.23;;
4794;SDS011;2411;47.060;15.064;2022-11-02T01:19:51;11.60;;;5.90;;
4794;SDS011;2411;47.060;15.064;2022-11-02T01:22:18;7.67;;;5.60;;
4794;SDS011;2411;47.060;15.064;2022-11-02T01:24:45;8.13;;;6.10;;
4794;SDS011;2411;47.060;15.064;2022-11-02T01:27:12;7.97;;;5.43;;
4794;SDS011;2411;47.060;15.064;2022-11-02T01:29:40;7.87;;;5.70;;
4794;SDS011;2411;47.060;15.064;2022-11-02T01:32:07;5.90;;;5.27;;
4794;SDS011;2411;47.060;15.064;2022-11-02T01:34:34;5.83;;;5.33;;
4794;SDS011;2411;47.060;15.064;2022-11-02T01:37:01;6.93;;;5.90;;
4794;SDS011;2411;47.060;15.064;2022-11-02T01:39:29;6.27;;;5.63;;
4794;SDS011;2411;47.060;15.064;2022-11-02T01:41:56;8.50;;;6.20;;
4794;SDS011;2411;47.060;15.064;2022-11-02T01:44:28;6.43;;;5.10;;
4794;SDS011;2411;47.060;15.064;2022-11-02T01:47:05;7.20;;;5.77;;
4794;SDS011;2411;47.060;15.064;2022-11-02T01:49:37;7.60;;;5.47;;
4794;SDS011;2411;47.060;15.064;2022-11-02T01:52:10;8.10;;;5.30;;
4794;SDS011;2411;47.060;15.064;2022-11-02T01:54:41;7.50;;;5.40;;
4794;SDS011;2411;47.060;15.064;2022-11-02T01:57:15;5.90;;;4.60;;
4794;SDS011;2411;47.060;15.064;2022-11-02T01:59:47;4.93;;;4.47;;
4794;SDS011;2411;47.060;15.064;2022-11-02T02:02:26;6.37;;;5.23;;
4794;SDS011;2411;47.060;15.064;2022-11-02T02:04:57;5.40;;;4.90;;
4794;SDS011;2411;47.060;15.064;2022-11-02T02:07:30;6.70;;;5.53;;
4794;SDS011;2411;47.060;15.064;2022-11-02T02:09:59;7.33;;;4.80;;
4794;SDS011;2411;47.060;15.064;2022-11-02T02:12:26;6.00;;;5.50;;
4794;SDS011;2411;47.060;15.064;2022-11-02T02:14:55;3.57;;;3.27;;
4794;SDS011;2411;47.060;15.064;2022-11-02T02:25:59;6.60;;;4.27;;
4794;SDS011;2411;47.060;15.064;2022-11-02T02:31:42;6.70;;;4.40;;
4794;SDS011;2411;47.060;15.064;2022-11-02T02:34:36;4.73;;;4.33;;
4794;SDS011;2411;47.060;15.064;2022-11-02T02:37:30;5.93;;;4.57;;
4794;SDS011;2411;47.060;15.064;2022-11-02T02:40:30;5.30;;;3.90;;
4794;SDS011;2411;47.060;15.064;2022-11-02T02:43:12;6.97;;;4.80;;
4794;SDS011;2411;47.060;15.064;2022-11-02T02:45:50;8.83;;;3.90;;
4794;SDS011;2411;47.060;15.064;2022-11-02T02:48:39;5.93;;;5.33;;
4794;SDS011;2411;47.060;15.064;2022-11-02T02:51:10;6.13;;;4.20;;
4794;SDS011;2411;47.060;15.064;2022-11-02T02:53:43;8.23;;;4.57;;
4794;SDS011;2411;47.060;15.064;2022-11-02T02:56:15;5.90;;;4.07;;
4794;SDS011;2411;47.060;15.064;2022-11-02T02:59:05;4.60;;;4.20;;
4794;SDS011;2411;47.060;15.064;2022-11-02T03:01:34;5.57;;;4.90;;
4794;SDS011;2411;47.060;15.064;2022-11-02T03:04:08;10.70;;;4.90;;
4794;SDS011;2411;47.060;15.064;2022-11-02T03:06:43;9.70;;;4.77;;
4794;SDS011;2411;47.060;15.064;2022-11-02T03:33:42;6.80;;;4.70;;
4794;SDS011;2411;47.060;15.064;2022-11-02T03:36:18;7.13;;;4.30;;
4794;SDS011;2411;47.060;15.064;2022-11-02T03:41:19;7.50;;;5.13;;
4794;SDS011;2411;47.060;15.064;2022-11-02T03:43:49;6.07;;;5.03;;
4794;SDS011;2411;47.060;15.064;2022-11-02T03:46:20;5.70;;;4.90;;
4794;SDS011;2411;47.060;15.064;2022-11-02T03:48:49;5.87;;;4.27;;
4794;SDS011;2411;47.060;15.064;2022-11-02T03:51:19;6.73;;;5.33;;
4794;SDS011;2411;47.060;15.064;2022-11-02T03:56:28;5.10;;;4.30;;
4794;SDS011;2411;47.060;15.064;2022-11-02T03:59:03;13.83;;;5.07;;
4794;SDS011;2411;47.060;15.064;2022-11-02T04:01:30;8.33;;;4.83;;
4794;SDS011;2411;47.060;15.064;2022-11-02T04:04:04;6.37;;;4.17;;
4794;SDS011;2411;47.060;15.064;2022-11-02T04:06:32;8.73;;;5.77;;
4794;SDS011;2411;47.060;15.064;2022-11-02T04:09:00;8.63;;;4.33;;
4794;SDS011;2411;47.060;15.064;2022-11-02T04:11:28;6.57;;;5.27;;
4794;SDS011;2411;47.060;15.064;2022-11-02T04:14:15;8.37;;;5.07;;
4794;SDS011;2411;47.060;15.064;2022-11-02T04:17:01;11.53;;;4.73;;
4794;SDS011;2411;47.060;15.064;2022-11-02T04:19:48;4.53;;;4.10;;
4794;SDS011;2411;47.060;15.064;2022-11-02T04:22:16;12.03;;;4.70;;
4794;SDS011;2411;47.060;15.064;2022-11-02T04:25:03;5.47;;;4.20;;
4794;SDS011;2411;47.060;15.064;2022-11-02T04:27:46;7.63;;;3.60;;
4794;SDS011;2411;47.060;15.064;2022-11-02T04:30:19;7.20;;;4.27;;
4794;SDS011;2411;47.060;15.064;2022-11-02T04:32:47;10.70;;;4.60;;
4794;SDS011;2411;47.060;15.064;2022-11-02T04:35:35;5.13;;;3.80;;
4794;SDS011;2411;47.060;15.064;2022-11-02T04:38:03;6.43;;;4.60;;
4794;SDS011;2411;47.060;15.064;2022-11-02T04:41:06;4.00;;;3.60;;
4794;SDS011;2411;47.060;15.064;2022-11-02T04:43:54;7.20;;;4.10;;
4794;SDS011;2411;47.060;15.064;2022-11-02T04:46:23;8.00;;;4.40;;
4794;SDS011;2411;47.060;15.064;2022-11-02T04:48:52;10.53;;;4.40;;
4794;SDS011;2411;47.060;15.064;2022-11-02T04:51:20;7.33;;;3.83;;
4794;SDS011;2411;47.060;15.064;2022-11-02T04:53:49;6.87;;;4.30;;
4794;SDS011;2411;47.060;15.064;2022-11-02T04:56:18;8.50;;;4.00;;
4794;SDS011;2411;47.060;15.064;2022-11-02T04:58:49;5.13;;;4.23;;
4794;SDS011;2411;47.060;15.064;2022-11-02T05:01:20;7.30;;;3.93;;
4794;SDS011;2411;47.060;15.064;2022-11-02T05:03:51;6.87;;;3.40;;
4794;SDS011;2411;47.060;15.064;2022-11-02T05:06:20;6.70;;;3.30;;
4794;SDS011;2411;47.060;15.064;2022-11-02T05:08:48;6.90;;;3.57;;
4794;SDS011;2411;47.060;15.064;2022-11-02T05:11:16;15.30;;;3.70;;
4794;SDS011;2411;47.060;15.064;2022-11-02T05:13:46;6.43;;;4.07;;
4794;SDS011;2411;47.060;15.064;2022-11-02T05:16:14;8.60;;;3.30;;
4794;SDS011;2411;47.060;15.064;2022-11-02T05:18:43;8.57;;;3.67;;
4794;SDS011;2411;47.060;15.064;2022-11-02T05:21:11;10.70;;;3.60;;
4794;SDS011;2411;47.060;15.064;2022-11-02T05:23:38;6.07;;;3.43;;
4794;SDS011;2411;47.060;15.064;2022-11-02T05:26:08;9.17;;;4.13;;
4794;SDS011;2411;47.060;15.064;2022-11-02T05:28:37;5.50;;;3.40;;
4794;SDS011;2411;47.060;15.064;2022-11-02T05:31:04;5.90;;;3.50;;
4794;SDS011;2411;47.060;15.064;2022-11-02T05:33:32;5.00;;;3.57;;
4794;SDS011;2411;47.060;15.064;2022-11-02T05:36:00;9.03;;;4.33;;
4794;SDS011;2411;47.060;15.064;2022-11-02T05:38:27;10.07;;;3.80;;
4794;SDS011;2411;47.060;15.064;2022-11-02T05:40:56;5.57;;;4.17;;
4794;SDS011;2411;47.060;15.064;2022-11-02T05:43:25;5.00;;;3.80;;
4794;SDS011;2411;47.060;15.064;2022-11-02T05:45:57;12.80;;;3.93;;
4794;SDS011;2411;47.060;15.064;2022-11-02T05:48:26;6.60;;;3.60;;
4794;SDS011;2411;47.060;15.064;2022-11-02T05:50:56;8.10;;;3.70;;
4794;SDS011;2411;47.060;15.064;2022-11-02T05:53:25;9.80;;;4.07;;
4794;SDS011;2411;47.060;15.064;2022-11-02T05:55:56;16.83;;;4.67;;
4794;SDS011;2411;47.060;15.064;2022-11-02T05:58:25;7.20;;;3.77;;
4794;SDS011;2411;47.060;15.064;2022-11-02T06:00:53;6.27;;;3.60;;
4794;SDS011;2411;47.060;15.064;2022-11-02T06:03:20;5.10;;;3.47;;
4794;SDS011;2411;47.060;15.064;2022-11-02T06:05:54;8.27;;;4.87;;
4794;SDS011;2411;47.060;15.064;2022-11-02T06:08:22;7.77;;;3.73;;
4794;SDS011;2411;47.060;15.064;2022-11-02T06:10:49;11.67;;;8.20;;
4794;SDS011;2411;47.060;15.064;2022-11-02T06:13:16;6.10;;;4.40;;
4794;SDS011;2411;47.060;15.064;2022-11-02T06:15:43;9.10;;;6.10;;
4794;SDS011;2411;47.060;15.064;2022-11-02T06:18:11;17.00;;;4.87;;
4794;SDS011;2411;47.060;15.064;2022-11-02T06:20:38;6.60;;;4.50;;
4794;SDS011;2411;47.060;15.064;2022-11-02T06:23:05;4.67;;;3.73;;
4794;SDS011;2411;47.060;15.064;2022-11-02T06:25:33;11.93;;;5.90;;
4794;SDS011;2411;47.060;15.064;2022-11-02T06:28:01;9.83;;;4.97;;
4794;SDS011;2411;47.060;15.064;2022-11-02T06:30:28;10.83;;;4.97;;
4794;SDS011;2411;47.060;15.064;2022-11-02T06:32:55;12.97;;;4.97;;
4794;SDS011;2411;47.060;15.064;2022-11-02T06:35:26;6.73;;;4.53;;
4794;SDS011;2411;47.060;15.064;2022-11-02T06:37:54;5.93;;;4.20;;
4794;SDS011;2411;47.060;15.064;2022-11-02T06:40:21;6.27;;;4.17;;
4794;SDS011;2411;47.060;15.064;2022-11-02T06:42:55;7.67;;;5.20;;
4794;SDS011;2411;47.060;15.064;2022-11-02T06:45:41;9.13;;;3.73;;
4794;SDS011;2411;47.060;15.064;2022-11-02T06:48:09;9.83;;;4.17;;
4794;SDS011;2411;47.060;15.064;2022-11-02T06:50:36;5.30;;;3.80;;
4794;SDS011;2411;47.060;15.064;2022-11-02T06:53:03;5.20;;;4.67;;
4794;SDS011;2411;47.060;15.064;2022-11-02T06:55:31;5.87;;;4.43;;
4794;SDS011;2411;47.060;15.064;2022-11-02T06:57:58;7.83;;;5.60;;
4794;SDS011;2411;47.060;15.064;2022-11-02T07:00:26;4.80;;;3.47;;
4794;SDS011;2411;47.060;15.064;2022-11-02T07:03:14;4.13;;;3.83;;
4794;SDS011;2411;47.060;15.064;2022-11-02T07:05:41;8.60;;;3.80;;
4794;SDS011;2411;47.060;15.064;2022-11-02T07:08:09;4.80;;;3.30;;
4794;SDS011;2411;47.060;15.064;2022-11-02T07:10:36;4.80;;;3.60;;
4794;SDS011;2411;47.060;15.064;2022-11-02T07:13:03;10.53;;;4.07;;
4794;SDS011;2411;47.060;15.064;2022-11-02T07:15:31;6.73;;;3.50;;
4794;SDS011;2411;47.060;15.064;2022-11-02T07:17:59;9.40;;;4.20;;
4794;SDS011;2411;47.060;15.064;2022-11-02T07:20:26;11.60;;;4.67;;
4794;SDS011;2411;47.060;15.064;2022-11-02T07:22:57;7.57;;;4.27;;
4794;SDS011;2411;47.060;15.064;2022-11-02T07:25:26;12.13;;;4.93;;
4794;SDS011;2411;47.060;15.064;2022-11-02T07:27:58;12.10;;;4.27;;
4794;SDS011;2411;47.060;15.064;2022-11-02T07:30:30;5.40;;;4.40;;
4794;SDS011;2411;47.060;15.064;2022-11-02T07:32:59;7.73;;;5.00;;
4794;SDS011;2411;47.060;15.064;2022-11-02T07:35:26;8.90;;;5.90;;
4794;SDS011;2411;47.060;15.064;2022-11-02T07:37:57;14.20;;;6.30;;
4794;SDS011;2411;47.060;15.064;2022-11-02T07:40:27;8.97;;;5.40;;
4794;SDS011;2411;47.060;15.064;2022-11-02T07:42:55;16.20;;;6.03;;
4794;SDS011;2411;47.060;15.064;2022-11-02T07:45:23;8.30;;;5.87;;
4794;SDS011;2411;47.060;15.064;2022-11-02T07:47:51;11.03;;;5.63;;
4794;SDS011;2411;47.060;15.064;2022-11-02T07:50:19;8.93;;;4.80;;
4794;SDS011;2411;47.060;15.064;2022-11-02T07:52:57;8.30;;;5.30;;
4794;SDS011;2411;47.060;15.064;2022-11-02T07:55:25;11.13;;;5.77;;
4794;SDS011;2411;47.060;15.064;2022-11-02T08:00:26;11.80;;;5.40;;
4794;SDS011;2411;47.060;15.064;2022-11-02T08:02:58;7.23;;;4.97;;
4794;SDS011;2411;47.060;15.064;2022-11-02T08:05:27;9.97;;;5.30;;
4794;SDS011;2411;47.060;15.064;2022-11-02T08:07:57;11.27;;;5.50;;
4794;SDS011;2411;47.060;15.064;2022-11-02T08:10:28;13.87;;;4.87;;
4794;SDS011;2411;47.060;15.064;2022-11-02T08:13:04;13.17;;;4.80;;
4794;SDS011;2411;47.060;15.064;2022-11-02T08:15:32;9.00;;;4.40;;
4794;SDS011;2411;47.060;15.064;2022-11-02T08:18:03;7.63;;;3.67;;
4794;SDS011;2411;47.060;15.064;2022-11-02T08:20:33;7.17;;;4.57;;
4794;SDS011;2411;47.060;15.064;2022-11-02T08:23:01;18.00;;;3.73;;
4794;SDS011;2411;47.060;15.064;2022-11-02T08:25:30;6.37;;;4.07;;
4794;SDS011;2411;47.060;15.064;2022-11-02T08:27:58;8.20;;;4.50;;
4794;SDS011;2411;47.060;15.064;2022-11-02T08:30:27;12.00;;;4.60;;
4794;SDS011;2411;47.060;15.064;2022-11-02T08:33:01;15.77;;;3.80;;
4794;SDS011;2411;47.060;15.064;2022-11-02T08:35:33;14.00;;;4.00;;
4794;SDS011;2411;47.060;15.064;2022-11-02T08:38:02;19.77;;;4.10;;
4794;SDS011;2411;47.060;15.064;2022-11-02T08:40:30;16.27;;;4.03;;
4794;SDS011;2411;47.060;15.064;2022-11-02T08:42:58;4.03;;;3.63;;
4794;SDS011;2411;47.060;15.064;2022-11-02T08:45:27;14.87;;;3.83;;
4794;SDS011;2411;47.060;15.064;2022-11-02T08:48:04;8.47;;;4.03;;
4794;SDS011;2411;47.060;15.064;2022-11-02T08:50:33;5.83;;;3.33;;
4794;SDS011;2411;47.060;15.064;2022-11-02T08:53:01;6.87;;;3.50;;
4794;SDS011;2411;47.060;15.064;2022-11-02T08:55:29;8.03;;;4.40;;
4794;SDS011;2411;47.060;15.064;2022-11-02T08:57:56;13.37;;;4.27;;
4794;SDS011;2411;47.060;15.064;2022-11-02T09:00:26;6.13;;;3.27;;
4794;SDS011;2411;47.060;15.064;2022-11-02T09:05:28;10.47;;;4.10;;
4794;SDS011;2411;47.060;15.064;2022-11-02T09:08:00;11.90;;;6.23;;
4794;SDS011;2411;47.060;15.064;2022-11-02T09:10:31;9.27;;;3.90;;
4794;SDS011;2411;47.060;15.064;2022-11-02T09:13:00;8.30;;;4.20;;
4794;SDS011;2411;47.060;15.064;2022-11-02T09:15:28;13.00;;;3.53;;
4794;SDS011;2411;47.060;15.064;2022-11-02T09:17:56;18.03;;;4.07;;
4794;SDS011;2411;47.060;15.064;2022-11-02T09:20:23;5.90;;;4.00;;
4794;SDS011;2411;47.060;15.064;2022-11-02T09:22:50;12.23;;;5.63;;
4794;SDS011;2411;47.060;15.064;2022-11-02T09:25:18;12.97;;;6.90;;
4794;SDS011;2411;47.060;15.064;2022-11-02T09:27:45;12.53;;;6.70;;
4794;SDS011;2411;47.060;15.064;2022-11-02T09:30:20;15.17;;;8.60;;
4794;SDS011;2411;47.060;15.064;2022-11-02T09:35:22;26.53;;;9.70;;
4794;SDS011;2411;47.060;15.064;2022-11-02T09:37:50;14.73;;;5.60;;
4794;SDS011;2411;47.060;15.064;2022-11-02T09:40:21;7.90;;;4.70;;
4794;SDS011;2411;47.060;15.064;2022-11-02T09:45:32;8.60;;;4.30;;
4794;SDS011;2411;47.060;15.064;2022-11-02T09:48:51;12.87;;;5.10;;
4794;SDS011;2411;47.060;15.064;2022-11-02T09:51:15;11.03;;;4.73;;
4794;SDS011;2411;47.060;15.064;2022-11-02T09:56:44;9.37;;;4.37;;
4794;SDS011;2411;47.060;15.064;2022-11-02T09:59:19;11.80;;;4.50;;
4794;SDS011;2411;47.060;15.064;2022-11-02T10:02:00;9.43;;;3.47;;
4794;SDS011;2411;47.060;15.064;2022-11-02T10:16:19;6.70;;;3.60;;
4794;SDS011;2411;47.060;15.064;2022-11-02T10:19:02;8.17;;;3.10;;
4794;SDS011;2411;47.060;15.064;2022-11-02T10:21:37;4.80;;;3.00;;
4794;SDS011;2411;47.060;15.064;2022-11-02T10:24:24;6.73;;;3.37;;
4794;SDS011;2411;47.060;15.064;2022-11-02T10:27:08;6.90;;;3.00;;
4794;SDS011;2411;47.060;15.064;2022-11-02T10:32:19;5.80;;;2.97;;
4794;SDS011;2411;47.060;15.064;2022-11-02T10:34:46;7.80;;;3.07;;
4794;SDS011;2411;47.060;15.064;2022-11-02T10:46:27;6.23;;;2.80;;
4794;SDS011;2411;47.060;15.064;2022-11-02T10:51:49;6.10;;;2.80;;
4794;SDS011;2411;47.060;15.064;2022-11-02T10:54:16;6.77;;;3.30;;
4794;SDS011;2411;47.060;15.064;2022-11-02T10:56:55;11.53;;;3.73;;
4794;SDS011;2411;47.060;15.064;2022-11-02T10:59:22;11.40;;;3.10;;
4794;SDS011;2411;47.060;15.064;2022-11-02T11:04:25;9.70;;;3.60;;
4794;SDS011;2411;47.060;15.064;2022-11-02T11:06:53;7.23;;;3.60;;
4794;SDS011;2411;47.060;15.064;2022-11-02T11:09:23;6.80;;;3.00;;
4794;SDS011;2411;47.060;15.064;2022-11-02T11:11:53;5.60;;;3.10;;
4794;SDS011;2411;47.060;15.064;2022-11-02T11:14:21;6.67;;;3.50;;
4794;SDS011;2411;47.060;15.064;2022-11-02T11:17:17;5.70;;;3.67;;
4794;SDS011;2411;47.060;15.064;2022-11-02T11:20:38;20.13;;;3.90;;
4794;SDS011;2411;47.060;15.064;2022-11-02T11:28:56;8.77;;;3.80;;
4794;SDS011;2411;47.060;15.064;2022-11-02T11:31:25;8.23;;;3.27;;
4794;SDS011;2411;47.060;15.064;2022-11-02T11:33:55;14.23;;;3.73;;
4794;SDS011;2411;47.060;15.064;2022-11-02T11:36:29;12.83;;;3.93;;
4794;SDS011;2411;47.060;15.064;2022-11-02T11:39:06;17.33;;;4.03;;
4794;SDS011;2411;47.060;15.064;2022-11-02T11:41:48;9.47;;;3.30;;
4794;SDS011;2411;47.060;15.064;2022-11-02T11:44:16;7.00;;;3.30;;
4794;SDS011;2411;47.060;15.064;2022-11-02T11:46:45;3.13;;;2.90;;
4794;SDS011;2411;47.060;15.064;2022-11-02T11:49:36;11.20;;;3.37;;
4794;SDS011;2411;47.060;15.064;2022-11-02T11:52:26;4.87;;;3.30;;
4794;SDS011;2411;47.060;15.064;2022-11-02T12:00:32;8.10;;;4.00;;
4794;SDS011;2411;47.060;15.064;2022-11-02T12:03:09;6.97;;;3.80;;
4794;SDS011;2411;47.060;15.064;2022-11-02T12:05:46;5.70;;;3.37;;
4794;SDS011;2411;47.060;15.064;2022-11-02T12:17:15;7.17;;;3.30;;
4794;SDS011;2411;47.060;15.064;2022-11-02T12:20:14;11.90;;;4.00;;
4794;SDS011;2411;47.060;15.064;2022-11-02T12:43:17;17.93;;;3.33;;
4794;SDS011;2411;47.060;15.064;2022-11-02T12:48:36;6.30;;;3.53;;
4794;SDS011;2411;47.060;15.064;2022-11-02T12:51:25;9.60;;;3.90;;
4794;SDS011;2411;47.060;15.064;2022-11-02T12:54:00;8.23;;;3.37;;
4794;SDS011;2411;47.060;15.064;2022-11-02T12:56:50;5.40;;;3.40;;
4794;SDS011;2411;47.060;15.064;2022-11-02T12:59:24;9.47;;;3.73;;
4794;SDS011;2411;47.060;15.064;2022-11-02T13:02:02;8.97;;;3.80;;
4794;SDS011;2411;47.060;15.064;2022-11-02T13:04:48;10.77;;;5.00;;
4794;SDS011;2411;47.060;15.064;2022-11-02T13:07:21;7.07;;;3.60;;
4794;SDS011;2411;47.060;15.064;2022-11-02T13:12:31;7.10;;;3.63;;
4794;SDS011;2411;47.060;15.064;2022-11-02T13:15:02;6.97;;;3.67;;
4794;SDS011;2411;47.060;15.064;2022-11-02T13:17:44;8.83;;;3.93;;
4794;SDS011;2411;47.060;15.064;2022-11-02T13:20:41;14.90;;;3.73;;
4794;SDS011;2411;47.060;15.064;2022-11-02T13:23:33;7.50;;;4.33;;
4794;SDS011;2411;47.060;15.064;2022-11-02T13:26:23;7.80;;;3.80;;
4794;SDS011;2411;47.060;15.064;2022-11-02T13:28:54;7.37;;;4.23;;
4794;SDS011;2411;47.060;15.064;2022-11-02T13:31:29;20.70;;;3.30;;
4794;SDS011;2411;47.060;15.064;2022-11-02T13:34:03;8.07;;;3.80;;
4794;SDS011;2411;47.060;15.064;2022-11-02T13:36:37;4.97;;;2.97;;
4794;SDS011;2411;47.060;15.064;2022-11-02T13:39:07;8.73;;;3.50;;
4794;SDS011;2411;47.060;15.064;2022-11-02T13:50:30;7.00;;;3.50;;
4794;SDS011;2411;47.060;15.064;2022-11-02T13:53:00;7.20;;;3.37;;
4794;SDS011;2411;47.060;15.064;2022-11-02T13:55:39;11.97;;;3.97;;
4794;SDS011;2411;47.060;15.064;2022-11-02T13:58:22;8.80;;;3.87;;
4794;SDS011;2411;47.060;15.064;2022-11-02T14:00:53;9.73;;;4.47;;
4794;SDS011;2411;47.060;15.064;2022-11-02T14:06:16;6.10;;;3.50;;
4794;SDS011;2411;47.060;15.064;2022-11-02T14:12:09;12.23;;;4.23;;
4794;SDS011;2411;47.060;15.064;2022-11-02T14:14:16;10.13;;;4.30;;
4794;SDS011;2411;47.060;15.064;2022-11-02T14:27:49;9.40;;;5.27;;
4794;SDS011;2411;47.060;15.064;2022-11-02T14:29:52;7.60;;;4.43;;
4794;SDS011;2411;47.060;15.064;2022-11-02T14:32:41;9.80;;;5.17;;
4794;SDS011;2411;47.060;15.064;2022-11-02T14:35:29;10.63;;;4.97;;
4794;SDS011;2411;47.060;15.064;2022-11-02T14:47:07;9.20;;;4.47;;
4794;SDS011;2411;47.060;15.064;2022-11-02T14:49:39;14.67;;;5.17;;
4794;SDS011;2411;47.060;15.064;2022-11-02T14:55:25;13.63;;;5.70;;
4794;SDS011;2411;47.060;15.064;2022-11-02T14:57:51;8.20;;;5.53;;
4794;SDS011;2411;47.060;15.064;2022-11-02T15:00:24;11.90;;;4.90;;
4794;SDS011;2411;47.060;15.064;2022-11-02T15:02:57;11.30;;;4.83;;
4794;SDS011;2411;47.060;15.064;2022-11-02T15:05:29;12.10;;;6.20;;
4794;SDS011;2411;47.060;15.064;2022-11-02T15:10:35;10.20;;;5.47;;
4794;SDS011;2411;47.060;15.064;2022-11-02T15:18:34;6.53;;;3.97;;
4794;SDS011;2411;47.060;15.064;2022-11-02T15:29:23;6.10;;;3.93;;
4794;SDS011;2411;47.060;15.064;2022-11-02T15:32:03;6.47;;;4.03;;
4794;SDS011;2411;47.060;15.064;2022-11-02T15:34:39;6.50;;;4.53;;
4794;SDS011;2411;47.060;15.064;2022-11-02T15:37:17;6.43;;;4.20;;
4794;SDS011;2411;47.060;15.064;2022-11-02T15:39:47;10.73;;;4.00;;
4794;SDS011;2411;47.060;15.064;2022-11-02T15:42:46;7.20;;;4.60;;
4794;SDS011;2411;47.060;15.064;2022-11-02T15:54:12;10.23;;;4.70;;
4794;SDS011;2411;47.060;15.064;2022-11-02T16:02:34;9.60;;;5.23;;
4794;SDS011;2411;47.060;15.064;2022-11-02T16:05:04;11.97;;;5.40;;
4794;SDS011;2411;47.060;15.064;2022-11-02T16:07:32;21.37;;;13.80;;
4794;SDS011;2411;47.060;15.064;2022-11-02T16:10:28;20.83;;;13.33;;
4794;SDS011;2411;47.060;15.064;2022-11-02T16:13:05;20.13;;;10.43;;
4794;SDS011;2411;47.060;15.064;2022-11-02T16:15:43;25.47;;;12.50;;
4794;SDS011;2411;47.060;15.064;2022-11-02T16:20:53;14.27;;;5.43;;
4794;SDS011;2411;47.060;15.064;2022-11-02T16:23:26;14.77;;;7.07;;
4794;SDS011;2411;47.060;15.064;2022-11-02T16:25:56;12.23;;;6.40;;
4794;SDS011;2411;47.060;15.064;2022-11-02T16:28:31;6.87;;;4.20;;
4794;SDS011;2411;47.060;15.064;2022-11-02T16:33:44;7.47;;;4.10;;
4794;SDS011;2411;47.060;15.064;2022-11-02T16:36:19;8.63;;;4.37;;
4794;SDS011;2411;47.060;15.064;2022-11-02T16:39:00;6.70;;;4.87;;
4794;SDS011;2411;47.060;15.064;2022-11-02T16:41:32;6.33;;;5.00;;
4794;SDS011;2411;47.060;15.064;2022-11-02T16:44:07;7.80;;;3.90;;
4794;SDS011;2411;47.060;15.064;2022-11-02T16:54:43;10.17;;;4.10;;
4794;SDS011;2411;47.060;15.064;2022-11-02T16:59:54;9.40;;;4.83;;
4794;SDS011;2411;47.060;15.064;2022-11-02T17:02:33;10.90;;;4.17;;
4794;SDS011;2411;47.060;15.064;2022-11-02T17:05:24;8.60;;;5.07;;
4794;SDS011;2411;47.060;15.064;2022-11-02T17:08:03;8.50;;;5.40;;
4794;SDS011;2411;47.060;15.064;2022-11-02T17:10:35;5.20;;;4.60;;
4794;SDS011;2411;47.060;15.064;2022-11-02T17:13:04;6.50;;;5.50;;
4794;SDS011;2411;47.060;15.064;2022-11-02T17:15:48;5.63;;;3.90;;
4794;SDS011;2411;47.060;15.064;2022-11-02T17:20:48;7.13;;;4.70;;
4794;SDS011;2411;47.060;15.064;2022-11-02T17:23:41;7.80;;;4.60;;
4794;SDS011;2411;47.060;15.064;2022-11-02T17:31:43;10.13;;;6.20;;
4794;SDS011;2411;47.060;15.064;2022-11-02T17:34:14;9.57;;;5.13;;
4794;SDS011;2411;47.060;15.064;2022-11-02T17:36:45;8.00;;;4.83;;
4794;SDS011;2411;47.060;15.064;2022-11-02T17:39:15;6.97;;;4.97;;
4794;SDS011;2411;47.060;15.064;2022-11-02T17:41:43;5.67;;;4.80;;
4794;SDS011;2411;47.060;15.064;2022-11-02T17:44:34;17.40;;;11.80;;
4794;SDS011;2411;47.060;15.064;2022-11-02T17:47:01;14.30;;;5.90;;
4794;SDS011;2411;47.060;15.064;2022-11-02T17:49:31;6.57;;;5.27;;
4794;SDS011;2411;47.060;15.064;2022-11-02T17:51:58;7.60;;;5.50;;
4794;SDS011;2411;47.060;15.064;2022-11-02T17:54:25;14.90;;;5.10;;
4794;SDS011;2411;47.060;15.064;2022-11-02T17:56:53;8.43;;;5.10;;
4794;SDS011;2411;47.060;15.064;2022-11-02T17:59:20;8.57;;;4.70;;
4794;SDS011;2411;47.060;15.064;2022-11-02T18:01:47;9.73;;;5.77;;
4794;SDS011;2411;47.060;15.064;2022-11-02T18:04:15;8.73;;;5.20;;
4794;SDS011;2411;47.060;15.064;2022-11-02T18:06:42;5.83;;;4.93;;
4794;SDS011;2411;47.060;15.064;2022-11-02T18:09:09;7.83;;;5.20;;
4794;SDS011;2411;47.060;15.064;2022-11-02T18:11:36;9.23;;;5.83;;
4794;SDS011;2411;47.060;15.064;2022-11-02T18:14:04;13.03;;;5.53;;
4794;SDS011;2411;47.060;15.064;2022-11-02T18:16:31;13.63;;;6.30;;
4794;SDS011;2411;47.060;15.064;2022-11-02T18:18:59;10.73;;;5.90;;
4794;SDS011;2411;47.060;15.064;2022-11-02T18:21:26;10.57;;;6.13;;
4794;SDS011;2411;47.060;15.064;2022-11-02T18:23:54;8.77;;;6.40;;
4794;SDS011;2411;47.060;15.064;2022-11-02T18:26:21;8.60;;;5.93;;
4794;SDS011;2411;47.060;15.064;2022-11-02T18:28:48;8.47;;;5.70;;
4794;SDS011;2411;47.060;15.064;2022-11-02T18:31:15;9.83;;;6.63;;
4794;SDS011;2411;47.060;15.064;2022-11-02T18:33:43;12.63;;;5.90;;
4794;SDS011;2411;47.060;15.064;2022-11-02T18:36:11;8.10;;;5.00;;
4794;SDS011;2411;47.060;15.064;2022-11-02T18:38:38;8.10;;;6.30;;
4794;SDS011;2411;47.060;15.064;2022-11-02T18:41:05;11.30;;;6.63;;
4794;SDS011;2411;47.060;15.064;2022-11-02T18:43:53;13.43;;;6.17;;
4794;SDS011;2411;47.060;15.064;2022-11-02T18:46:29;10.60;;;6.77;;
4794;SDS011;2411;47.060;15.064;2022-11-02T18:48:58;16.13;;;8.33;;
4794;SDS011;2411;47.060;15.064;2022-11-02T18:51:25;9.43;;;6.03;;
4794;SDS011;2411;47.060;15.064;2022-11-02T18:53:53;13.10;;;6.37;;
4794;SDS011;2411;47.060;15.064;2022-11-02T18:56:22;10.27;;;6.27;;
4794;SDS011;2411;47.060;15.064;2022-11-02T18:58:50;9.50;;;6.07;;
4794;SDS011;2411;47.060;15.064;2022-11-02T19:01:19;6.77;;;5.87;;
4794;SDS011;2411;47.060;15.064;2022-11-02T19:03:51;8.63;;;5.43;;
4794;SDS011;2411;47.060;15.064;2022-11-02T19:06:20;11.00;;;6.27;;
4794;SDS011;2411;47.060;15.064;2022-11-02T19:09:08;7.30;;;5.20;;
4794;SDS011;2411;47.060;15.064;2022-11-02T19:11:51;8.47;;;5.90;;